Bookmark and Share
Track history (hours):
 

Moose 62

Last reported at 2014-Apr-11 22:14 UTC. Time now 2014-Apr-18 08:16 UTC.
Position N 48°26' W 123°26'.

; draft 3 m.

Type: Military. MMSI: 316013412.

NotesDate/timePositionNaut miles runAvg speedWind from/ knotsBaromVisibWave heightAir tempDewpointWater temp
2014-Apr-11 22:14N 48°26' W 123°26'0 0.0
2014-Apr-10 05:33N 48°26' W 123°26'0 0.0
2014-Apr-10 03:32N 48°26' W 123°26'0 0.0
2014-Apr-09 09:25N 48°26' W 123°26'0 0.0
2014-Apr-09 07:18N 48°26' W 123°26'0 0.0
2014-Apr-09 05:21N 48°26' W 123°26'0 0.0
2014-Apr-08 23:17N 48°26' W 123°26'0 0.0
2014-Apr-08 09:07N 48°26' W 123°26'0 0.0
2014-Apr-08 03:22N 48°26' W 123°26'0 0.0
2014-Apr-08 02:22N 48°26' W 123°26'0 0.0
2014-Apr-08 01:28N 48°26' W 123°26'0 0.0
2014-Apr-07 23:10N 48°26' W 123°26'0 0.0
2014-Apr-07 22:21N 48°26' W 123°26'0 0.0
2014-Apr-07 02:29N 48°26' W 123°26'0 0.0
2014-Apr-07 01:23N 48°26' W 123°26'0 0.0
2014-Apr-07 00:29N 48°26' W 123°26'0 0.0
2014-Apr-06 21:23N 48°26' W 123°26'0 0.0
2014-Apr-05 02:09N 48°26' W 123°26'0 0.0
2014-Apr-05 01:33N 48°26' W 123°26'0 0.0
2014-Apr-05 00:24N 48°26' W 123°26'0 0.0
2014-Apr-04 19:17N 48°26' W 123°26'1 1.0
2014-Apr-04 18:32N 48°26' W 123°27'0 0.0
2014-Apr-04 17:32N 48°26' W 123°27'1 0.7
2014-Apr-04 16:34N 48°26' W 123°26'0 0.0
2014-Apr-03 21:26N 48°26' W 123°26'0 0.0
2014-Apr-03 20:28N 48°26' W 123°26'0 0.2
2014-Apr-03 19:26N 48°26' W 123°26'910.5
2014-Apr-03 18:33N 48°27' W 123°12'1918.6
2014-Apr-03 17:33N 48°45' W 123°20'9 8.8
2014-Apr-03 16:33N 48°51' W 123°30'0 0.0
2014-Apr-03 15:26N 48°51' W 123°30'910.4
2014-Apr-03 14:32N 48°44' W 123°21'3 3.5
2014-Apr-03 13:33N 48°42' W 123°17'1110.6
2014-Apr-03 12:33N 48°47' W 123°03'8 8.1
2014-Apr-03 11:33N 48°54' W 123°08'10 9.8
2014-Apr-03 10:33N 49°00' W 123°20'10 9.8
2014-Apr-03 09:33N 49°07' W 123°30'1111.2
2014-Apr-03 08:33N 49°14' W 123°43'1110.8
2014-Apr-03 07:33N 49°19' W 123°58'1010.5
2014-Apr-03 06:33N 49°23' W 124°13'1010.2
2014-Apr-03 05:33N 49°28' W 124°27'1111.4
2014-Apr-03 04:33N 49°37' W 124°38'1110.8
2014-Apr-03 03:33N 49°46' W 124°45'9 8.9
2014-Apr-03 02:33N 49°55' W 124°42'4 1.2
2014-Apr-02 23:17N 49°57' W 124°48'5 0.6
2014-Apr-02 15:33N 50°01' W 124°52'1010.5
2014-Apr-02 14:33N 49°52' W 124°43'1211.5
2014-Apr-02 13:33N 49°41' W 124°40'1212.0
2014-Apr-02 12:33N 49°31' W 124°30'1111.4
2014-Apr-02 11:33N 49°25' W 124°15'1212.1
2014-Apr-02 10:33N 49°19' W 123°58'1211.7
2014-Apr-02 09:33N 49°14' W 123°42'1110.6
2014-Apr-02 08:33N 49°08' W 123°29'1212.0
2014-Apr-02 07:33N 49°00' W 123°14'9 9.1
2014-Apr-02 06:32N 48°53' W 123°06'1212.1
2014-Apr-02 05:33N 49°00' W 123°20'1312.5
2014-Apr-02 04:30N 49°11' W 123°31'1212.7
2014-Apr-02 03:34N 49°13' W 123°49'5 2.2
2014-Apr-02 01:06N 49°10' W 123°56'2 4.6
2014-Apr-02 00:33N 49°12' W 123°54'1010.5
2014-Apr-01 23:34N 49°16' W 124°09'0 0.4
2014-Apr-01 22:33N 49°16' W 124°09'  

Dump ship's entire track history

sailing weather and tide predictions

Moose 62 — CGCZ — position and weather